createdAt,value
2018-09-09T00:00:13.484Z,3.93
2018-09-09T00:02:43.030Z,3.80
2018-09-09T00:05:12.735Z,4.30
2018-09-09T00:07:42.176Z,4.10
2018-09-09T00:10:11.708Z,4.40
2018-09-09T00:12:41.150Z,4.17
2018-09-09T00:15:10.658Z,4.13
2018-09-09T00:17:40.263Z,4.07
2018-09-09T00:20:10.645Z,5.17
2018-09-09T00:22:40.310Z,5.33
2018-09-09T00:25:09.945Z,5.77
2018-09-09T00:27:40.797Z,7.20
2018-09-09T00:30:10.602Z,5.70
2018-09-09T00:32:40.478Z,5.13
2018-09-09T00:35:10.128Z,4.70
2018-09-09T00:37:39.637Z,4.00
2018-09-09T00:40:09.088Z,4.50
2018-09-09T00:42:38.639Z,4.90
2018-09-09T00:45:08.055Z,4.07
2018-09-09T00:47:37.476Z,4.50
2018-09-09T00:50:12.753Z,4.60
2018-09-09T00:52:47.377Z,4.23
2018-09-09T00:55:17.264Z,3.97
2018-09-09T00:57:46.741Z,5.00
2018-09-09T01:00:20.959Z,4.20
2018-09-09T01:02:50.465Z,5.10
2018-09-09T01:05:19.805Z,4.30
2018-09-09T01:07:50.099Z,4.40
2018-09-09T01:10:19.635Z,4.27
2018-09-09T01:12:49.197Z,4.57
2018-09-09T01:15:19.496Z,5.40
2018-09-09T01:17:48.911Z,4.60
2018-09-09T01:20:18.871Z,4.10
2018-09-09T01:22:48.682Z,4.17
2018-09-09T01:25:18.072Z,5.07
2018-09-09T01:27:47.493Z,8.50
2018-09-09T01:30:17.220Z,6.83
2018-09-09T01:32:46.650Z,6.83
2018-09-09T01:35:16.072Z,5.27
2018-09-09T01:37:46.007Z,5.00
2018-09-09T01:40:15.708Z,5.50
2018-09-09T01:42:45.146Z,5.07
2018-09-09T01:45:14.670Z,4.30
2018-09-09T01:47:44.133Z,4.83
2018-09-09T01:50:13.532Z,3.90
2018-09-09T01:52:43.658Z,4.57
2018-09-09T01:55:13.136Z,4.57
2018-09-09T01:57:42.608Z,4.17
2018-09-09T02:00:12.370Z,4.40
2018-09-09T02:02:41.749Z,4.23
2018-09-09T02:05:11.171Z,4.50
2018-09-09T02:07:40.969Z,4.00
2018-09-09T02:10:10.748Z,4.10
2018-09-09T02:12:40.284Z,4.33
2018-09-09T02:15:10.062Z,4.50
2018-09-09T02:17:39.667Z,4.40
2018-09-09T02:20:09.095Z,4.47
2018-09-09T02:22:39.504Z,4.70
2018-09-09T02:25:09.060Z,5.23
2018-09-09T02:27:38.424Z,6.03
2018-09-09T02:30:08.014Z,6.13
2018-09-09T02:32:37.794Z,6.17
2018-09-09T02:35:07.264Z,5.57
2018-09-09T02:37:37.002Z,4.83
2018-09-09T02:40:06.582Z,5.23
2018-09-09T02:42:36.182Z,5.63
2018-09-09T02:45:05.858Z,5.53
2018-09-09T02:47:35.400Z,5.00
2018-09-09T02:50:04.832Z,4.77
2018-09-09T02:52:34.300Z,5.83
2018-09-09T02:55:04.256Z,5.17
2018-09-09T02:57:33.686Z,5.57
2018-09-09T03:00:04.228Z,5.77
2018-09-09T03:02:33.663Z,5.40
2018-09-09T03:05:03.254Z,5.50
2018-09-09T03:07:32.797Z,6.00
2018-09-09T03:10:02.140Z,5.37
2018-09-09T03:12:32.157Z,5.87
2018-09-09T03:15:01.927Z,5.37
2018-09-09T03:17:31.582Z,5.70
2018-09-09T03:20:01.006Z,6.27
2018-09-09T03:22:31.378Z,5.40
2018-09-09T03:25:00.971Z,5.40
2018-09-09T03:27:30.485Z,5.40
2018-09-09T03:30:00.039Z,5.67
2018-09-09T03:32:29.627Z,6.33
2018-09-09T03:34:59.253Z,5.83
2018-09-09T03:37:28.932Z,6.37
2018-09-09T03:39:58.431Z,5.83
2018-09-09T03:42:28.170Z,5.60
2018-09-09T03:44:58.180Z,6.00
2018-09-09T03:47:27.735Z,5.70
2018-09-09T03:49:57.238Z,5.93
2018-09-09T03:52:26.816Z,5.60
2018-09-09T03:54:56.270Z,5.60
2018-09-09T03:57:25.776Z,5.53
2018-09-09T03:59:55.131Z,5.40
2018-09-09T04:02:24.543Z,5.90
2018-09-09T04:04:54.110Z,6.10
2018-09-09T04:07:23.942Z,5.93
2018-09-09T04:09:53.786Z,5.60
2018-09-09T04:12:23.320Z,6.77
2018-09-09T04:14:52.808Z,6.10
2018-09-09T04:17:22.384Z,6.40
2018-09-09T04:19:51.783Z,5.63
2018-09-09T04:22:21.222Z,5.27
2018-09-09T04:24:50.575Z,5.40
2018-09-09T04:27:20.119Z,5.17
2018-09-09T04:29:49.852Z,5.00
2018-09-09T04:32:19.202Z,5.63
2018-09-09T04:34:48.551Z,5.80
2018-09-09T04:37:17.951Z,8.97
2018-09-09T04:39:47.304Z,6.60
2018-09-09T04:42:16.594Z,4.93
2018-09-09T04:44:45.950Z,4.73
2018-09-09T04:47:15.354Z,6.20
2018-09-09T04:49:44.685Z,6.17
2018-09-09T04:52:14.459Z,7.50
2018-09-09T04:54:43.927Z,5.70
2018-09-09T04:57:13.238Z,6.17
2018-09-09T04:59:42.673Z,6.40
2018-09-09T05:02:12.074Z,6.17
2018-09-09T05:04:41.533Z,5.17
2018-09-09T05:07:11.036Z,5.30
2018-09-09T05:09:40.454Z,5.70
2018-09-09T05:12:09.847Z,5.47
2018-09-09T05:14:39.352Z,5.40
2018-09-09T05:17:08.832Z,5.00
2018-09-09T05:19:38.210Z,5.30
2018-09-09T05:22:07.619Z,5.87
2018-09-09T05:24:37.018Z,5.07
2018-09-09T05:27:06.468Z,5.63
2018-09-09T05:29:35.903Z,5.70
2018-09-09T05:32:05.304Z,4.90
2018-09-09T05:34:34.915Z,5.77
2018-09-09T05:37:04.552Z,6.37
2018-09-09T05:39:34.403Z,10.67
2018-09-09T05:42:05.326Z,6.00
2018-09-09T05:44:35.108Z,5.73
2018-09-09T05:47:04.549Z,5.20
2018-09-09T05:49:33.962Z,5.03
2018-09-09T05:52:03.500Z,4.43
2018-09-09T05:54:33.136Z,4.83
2018-09-09T05:57:02.768Z,5.53
2018-09-09T05:59:32.168Z,10.60
2018-09-09T06:02:01.506Z,8.30
2018-09-09T06:04:31.320Z,9.57
2018-09-09T06:07:07.719Z,6.40
2018-09-09T06:09:37.188Z,5.80
2018-09-09T06:12:06.695Z,5.70
2018-09-09T06:14:36.098Z,9.23
2018-09-09T06:17:06.412Z,8.30
2018-09-09T06:19:35.803Z,9.33
2018-09-09T06:22:05.264Z,8.07
2018-09-09T06:24:34.691Z,12.37
2018-09-09T06:27:04.069Z,8.63
2018-09-09T06:29:33.559Z,9.43
2018-09-09T06:32:02.979Z,7.20
2018-09-09T06:34:33.164Z,8.90
2018-09-09T06:37:02.647Z,7.33
2018-09-09T06:39:32.071Z,5.00
2018-09-09T06:42:01.539Z,4.90
2018-09-09T06:44:30.855Z,4.97
2018-09-09T06:47:00.255Z,4.60
2018-09-09T06:49:29.574Z,4.73
2018-09-09T06:51:59.078Z,4.33
2018-09-09T06:54:28.993Z,5.30
2018-09-09T06:56:58.291Z,5.10
2018-09-09T06:59:27.672Z,4.77
2018-09-09T07:01:58.545Z,5.30
2018-09-09T07:04:27.936Z,4.90
2018-09-09T07:06:57.291Z,4.27
2018-09-09T07:09:26.676Z,4.50
2018-09-09T07:11:56.213Z,4.20
2018-09-09T07:14:25.733Z,5.17
2018-09-09T07:16:55.195Z,4.97
2018-09-09T07:19:24.644Z,5.30
2018-09-09T07:21:54.098Z,4.37
2018-09-09T07:24:23.543Z,4.73
2018-09-09T07:26:52.935Z,5.03
2018-09-09T07:29:22.357Z,5.10
2018-09-09T07:31:51.944Z,4.50
2018-09-09T07:34:21.378Z,5.07
2018-09-09T07:36:50.678Z,4.90
2018-09-09T07:39:20.105Z,5.03
2018-09-09T07:41:49.507Z,4.60
2018-09-09T07:44:18.890Z,5.97
2018-09-09T07:46:48.597Z,4.87
2018-09-09T07:49:18.040Z,5.20
2018-09-09T07:51:47.405Z,5.07
2018-09-09T07:54:17.055Z,4.40
2018-09-09T07:56:46.812Z,4.87
2018-09-09T07:59:16.296Z,6.07
2018-09-09T08:01:45.752Z,5.07
2018-09-09T08:04:15.203Z,4.70
2018-09-09T08:06:44.665Z,5.60
2018-09-09T08:09:14.838Z,5.27
2018-09-09T08:11:44.288Z,5.30
2018-09-09T08:14:13.649Z,5.73
2018-09-09T08:16:43.182Z,4.70
2018-09-09T08:19:12.687Z,5.93
2018-09-09T08:21:42.112Z,5.63
2018-09-09T08:24:11.642Z,5.40
2018-09-09T08:26:41.122Z,4.67
2018-09-09T08:29:10.712Z,4.60
2018-09-09T08:31:40.160Z,5.50
2018-09-09T08:34:09.657Z,5.10
2018-09-09T08:36:38.948Z,4.80
2018-09-09T08:39:10.777Z,4.90
2018-09-09T08:41:40.489Z,4.50
2018-09-09T08:44:10.643Z,4.80
2018-09-09T08:46:40.424Z,4.23
2018-09-09T08:49:09.828Z,4.70
2018-09-09T08:51:39.353Z,4.20
2018-09-09T08:54:08.840Z,4.57
2018-09-09T08:56:38.547Z,4.10
2018-09-09T08:59:07.956Z,3.63
2018-09-09T09:01:37.391Z,2.70
2018-09-09T09:04:06.862Z,3.40
2018-09-09T09:06:36.181Z,3.00
2018-09-09T09:09:10.452Z,2.90
2018-09-09T09:11:40.264Z,2.60
2018-09-09T09:14:09.803Z,2.40
2018-09-09T09:16:39.224Z,2.60
2018-09-09T09:19:08.507Z,2.77
2018-09-09T09:21:37.885Z,2.70
2018-09-09T09:24:07.546Z,2.90
2018-09-09T09:26:37.020Z,2.27
2018-09-09T09:29:06.810Z,2.73
2018-09-09T09:31:36.345Z,2.50
2018-09-09T09:34:05.778Z,2.47
2018-09-09T09:36:35.244Z,2.70
2018-09-09T09:39:06.435Z,2.00
2018-09-09T09:41:35.932Z,2.03
2018-09-09T09:44:05.318Z,1.70
2018-09-09T09:46:34.826Z,2.10
2018-09-09T09:49:04.454Z,1.80
2018-09-09T09:51:33.894Z,2.00
2018-09-09T09:54:03.428Z,2.00
2018-09-09T09:56:33.554Z,2.10
2018-09-09T09:59:03.171Z,2.10
2018-09-09T10:01:32.699Z,1.93
2018-09-09T10:04:02.191Z,1.73
2018-09-09T10:06:31.540Z,1.77
2018-09-09T10:09:01.082Z,5.40
2018-09-09T10:11:30.552Z,2.23
2018-09-09T10:14:00.108Z,1.90
2018-09-09T10:16:29.961Z,2.33
2018-09-09T10:18:59.538Z,2.10
2018-09-09T10:21:28.997Z,2.17
2018-09-09T10:23:58.901Z,1.80
2018-09-09T10:26:28.356Z,1.67
2018-09-09T10:28:57.876Z,1.90
2018-09-09T10:31:27.385Z,2.27
2018-09-09T10:33:56.697Z,2.20
2018-09-09T10:36:26.411Z,1.73
2018-09-09T10:38:55.975Z,1.93
2018-09-09T10:41:25.396Z,1.90
2018-09-09T10:43:54.744Z,1.60
2018-09-09T10:46:24.322Z,1.40
2018-09-09T10:48:53.828Z,1.30
2018-09-09T10:51:23.203Z,2.10
2018-09-09T10:53:52.697Z,1.80
2018-09-09T10:56:22.161Z,1.87
2018-09-09T10:58:51.563Z,1.83
2018-09-09T11:01:21.542Z,1.70
2018-09-09T11:03:50.923Z,1.90
2018-09-09T11:06:20.325Z,1.40
2018-09-09T11:08:49.735Z,1.93
2018-09-09T11:11:19.281Z,2.13
2018-09-09T11:13:48.807Z,1.90
2018-09-09T11:16:18.275Z,1.60
2018-09-09T11:18:47.650Z,1.77
2018-09-09T11:21:17.023Z,1.83
2018-09-09T11:23:46.761Z,1.73
2018-09-09T11:26:16.294Z,1.83
2018-09-09T11:28:45.687Z,1.70
2018-09-09T11:31:15.076Z,1.80
2018-09-09T11:33:44.455Z,1.70
2018-09-09T11:36:14.932Z,1.77
2018-09-09T11:38:44.695Z,1.40
2018-09-09T11:41:14.178Z,1.50
2018-09-09T11:43:43.693Z,1.33
2018-09-09T11:46:13.385Z,1.40
2018-09-09T11:48:42.835Z,1.60
2018-09-09T11:51:12.285Z,1.70
2018-09-09T11:53:41.687Z,1.60
2018-09-09T11:56:11.101Z,1.50
2018-09-09T11:58:40.523Z,1.93
2018-09-09T12:01:09.976Z,1.50
2018-09-09T12:03:39.596Z,1.50
2018-09-09T12:06:09.043Z,1.67
2018-09-09T12:08:38.742Z,1.30
2018-09-09T12:11:08.174Z,1.60
2018-09-09T12:13:37.846Z,1.60
2018-09-09T12:16:07.226Z,1.47
2018-09-09T12:18:36.630Z,1.80
2018-09-09T12:21:06.268Z,1.70
2018-09-09T12:23:35.767Z,1.70
2018-09-09T12:26:05.244Z,1.70
2018-09-09T12:28:34.594Z,1.53
2018-09-09T12:31:04.351Z,1.80
2018-09-09T12:33:33.706Z,3.10
2018-09-09T12:36:03.152Z,2.50
2018-09-09T12:38:32.547Z,2.00
2018-09-09T12:41:01.914Z,1.40
2018-09-09T12:43:36.517Z,1.63
2018-09-09T12:46:11.278Z,1.60
2018-09-09T12:48:46.067Z,3.00
2018-09-09T12:51:15.468Z,1.30
2018-09-09T12:53:45.030Z,1.50
2018-09-09T12:56:14.404Z,1.50
2018-09-09T12:58:43.880Z,1.90
2018-09-09T13:01:13.530Z,1.60
2018-09-09T13:03:43.075Z,1.77
2018-09-09T13:06:12.649Z,2.17
2018-09-09T13:08:42.086Z,2.00
2018-09-09T13:11:12.303Z,1.97
2018-09-09T13:13:41.699Z,1.90
2018-09-09T13:16:11.288Z,1.93
2018-09-09T13:18:40.705Z,1.80
2018-09-09T13:21:10.233Z,2.00
2018-09-09T13:23:39.656Z,2.23
2018-09-09T13:26:09.150Z,2.93
2018-09-09T13:28:38.491Z,1.93
2018-09-09T13:31:07.860Z,2.27
2018-09-09T13:33:38.506Z,1.90
2018-09-09T13:36:07.928Z,1.70
2018-09-09T13:38:37.392Z,1.93
2018-09-09T13:41:06.932Z,1.90
2018-09-09T13:43:36.393Z,3.00
2018-09-09T13:46:05.835Z,2.27
2018-09-09T13:48:35.423Z,2.57
2018-09-09T13:51:04.751Z,2.23
2018-09-09T13:53:34.184Z,2.20
2018-09-09T13:56:03.928Z,2.27
2018-09-09T13:58:33.308Z,2.40
2018-09-09T14:01:02.718Z,2.20
2018-09-09T14:03:32.149Z,2.23
2018-09-09T14:06:01.516Z,2.30
2018-09-09T14:08:31.105Z,2.50
2018-09-09T14:11:00.506Z,1.80
2018-09-09T14:13:29.960Z,1.50
2018-09-09T14:15:59.463Z,1.80
2018-09-09T14:18:29.227Z,1.67
2018-09-09T14:20:59.125Z,2.30
2018-09-09T14:23:28.612Z,2.00
2018-09-09T14:25:58.058Z,1.60
2018-09-09T14:28:27.935Z,1.93
2018-09-09T14:30:57.370Z,1.87
2018-09-09T14:33:26.861Z,2.00
2018-09-09T14:35:56.222Z,2.00
2018-09-09T14:38:26.062Z,1.97
2018-09-09T14:40:55.614Z,2.10
2018-09-09T14:43:25.148Z,2.40
2018-09-09T14:45:54.646Z,2.57
2018-09-09T14:48:23.992Z,2.47
2018-09-09T14:50:53.497Z,2.10
2018-09-09T14:53:23.018Z,2.40
2018-09-09T14:55:52.535Z,2.23
2018-09-09T14:58:22.117Z,2.40
2018-09-09T15:00:51.553Z,2.53
2018-09-09T15:03:21.504Z,3.67
2018-09-09T15:05:50.874Z,2.57
2018-09-09T15:08:20.247Z,2.57
2018-09-09T15:10:49.720Z,2.63
2018-09-09T15:13:19.117Z,2.47
2018-09-09T15:15:48.518Z,3.30
2018-09-09T15:18:17.918Z,2.67
2018-09-09T15:20:50.736Z,2.60
2018-09-09T15:23:20.856Z,2.40
2018-09-09T15:25:50.537Z,2.87
2018-09-09T15:28:19.974Z,3.27
2018-09-09T15:30:49.538Z,2.40
2018-09-09T15:33:18.950Z,2.87
2018-09-09T15:35:48.479Z,3.10
2018-09-09T15:38:17.980Z,2.80
2018-09-09T15:40:47.602Z,3.20
2018-09-09T15:43:17.189Z,3.10
2018-09-09T15:45:46.803Z,2.87
2018-09-09T15:48:16.298Z,2.60
2018-09-09T15:50:45.972Z,2.67
2018-09-09T15:53:15.685Z,2.47
2018-09-09T15:55:45.352Z,2.87
2018-09-09T15:58:14.885Z,2.60
2018-09-09T16:00:44.653Z,2.80
2018-09-09T16:03:14.115Z,2.20
2018-09-09T16:05:43.588Z,2.80
2018-09-09T16:08:13.331Z,2.30
2018-09-09T16:10:43.232Z,2.20
2018-09-09T16:13:13.634Z,2.17
2018-09-09T16:15:43.215Z,2.73
2018-09-09T16:18:12.760Z,2.73
2018-09-09T16:20:42.341Z,2.03
2018-09-09T16:23:11.986Z,2.10
2018-09-09T16:25:41.896Z,2.30
2018-09-09T16:28:11.400Z,2.40
2018-09-09T16:30:52.529Z,2.23
2018-09-09T16:33:22.415Z,2.83
2018-09-09T16:35:51.862Z,2.50
2018-09-09T16:38:21.371Z,2.33
2018-09-09T16:40:50.859Z,2.27
2018-09-09T16:43:20.365Z,2.83
2018-09-09T16:45:49.790Z,2.10
2018-09-09T16:48:19.596Z,2.60
2018-09-09T16:50:49.411Z,2.53
2018-09-09T16:53:19.696Z,2.20
2018-09-09T16:55:49.371Z,2.20
2018-09-09T16:58:18.858Z,2.63
2018-09-09T17:00:48.381Z,2.27
2018-09-09T17:03:18.296Z,3.13
2018-09-09T17:05:47.828Z,2.13
2018-09-09T17:08:17.515Z,2.57
2018-09-09T17:10:47.095Z,2.50
2018-09-09T17:13:16.437Z,2.80
2018-09-09T17:15:46.294Z,2.30
2018-09-09T17:18:15.806Z,2.40
2018-09-09T17:20:45.522Z,2.40
2018-09-09T17:23:14.916Z,2.40
2018-09-09T17:25:44.241Z,2.53
2018-09-09T17:28:13.752Z,2.30
2018-09-09T17:30:43.415Z,2.67
2018-09-09T17:33:13.078Z,2.77
2018-09-09T17:35:42.806Z,2.40
2018-09-09T17:38:13.292Z,2.70
2018-09-09T17:40:43.117Z,2.53
2018-09-09T17:43:12.990Z,2.60
2018-09-09T17:45:42.457Z,2.70
2018-09-09T17:48:12.330Z,2.90
2018-09-09T17:50:42.201Z,2.63
2018-09-09T17:53:11.964Z,3.67
2018-09-09T17:55:41.749Z,2.50
2018-09-09T17:58:11.605Z,2.60
2018-09-09T18:00:42.213Z,2.80
2018-09-09T18:03:11.642Z,3.00
2018-09-09T18:05:41.533Z,2.80
2018-09-09T18:08:11.069Z,3.33
2018-09-09T18:10:40.440Z,3.13
2018-09-09T18:13:09.960Z,3.30
2018-09-09T18:15:42.225Z,3.67
2018-09-09T18:18:12.166Z,4.10
2018-09-09T18:20:41.903Z,4.10
2018-09-09T18:23:11.658Z,3.40
2018-09-09T18:25:41.097Z,4.33
2018-09-09T18:28:11.296Z,4.07
2018-09-09T18:30:40.799Z,4.20
2018-09-09T18:33:10.244Z,3.30
2018-09-09T18:35:39.800Z,3.60
2018-09-09T18:38:09.369Z,3.03
2018-09-09T18:40:38.800Z,3.30
2018-09-09T18:43:08.460Z,2.53
2018-09-09T18:45:38.242Z,2.93
2018-09-09T18:48:09.486Z,3.20
2018-09-09T18:50:39.194Z,3.53
2018-09-09T18:53:08.695Z,3.70
2018-09-09T18:55:38.283Z,4.10
2018-09-09T18:58:08.085Z,3.97
2018-09-09T19:00:37.565Z,3.80
2018-09-09T19:03:07.704Z,4.83
2018-09-09T19:05:37.395Z,3.90
2018-09-09T19:08:07.365Z,4.07
2018-09-09T19:10:36.884Z,3.17
2018-09-09T19:13:07.993Z,3.70
2018-09-09T19:15:37.557Z,4.03
2018-09-09T19:18:07.146Z,3.60
2018-09-09T19:20:36.793Z,3.07
2018-09-09T19:23:06.456Z,3.50
2018-09-09T19:25:36.321Z,3.10
2018-09-09T19:28:05.894Z,3.13
2018-09-09T19:30:36.018Z,3.20
2018-09-09T19:33:05.959Z,3.13
2018-09-09T19:35:36.053Z,3.33
2018-09-09T19:38:05.977Z,3.13
2018-09-09T19:40:35.518Z,3.83
2018-09-09T19:43:05.148Z,4.03
2018-09-09T19:45:34.664Z,3.37
2018-09-09T19:48:04.366Z,4.07
2018-09-09T19:50:34.045Z,3.70
2018-09-09T19:53:03.453Z,3.60
2018-09-09T19:55:32.927Z,3.87
2018-09-09T19:58:02.393Z,3.37
2018-09-09T20:00:32.090Z,3.60
2018-09-09T20:03:01.857Z,3.87
2018-09-09T20:05:31.402Z,3.67
2018-09-09T20:08:01.079Z,3.53
2018-09-09T20:10:30.524Z,3.50
2018-09-09T20:13:00.817Z,4.40
2018-09-09T20:15:30.305Z,3.90
2018-09-09T20:17:59.635Z,4.67
2018-09-09T20:20:29.043Z,4.03
2018-09-09T20:22:58.617Z,4.33
2018-09-09T20:25:27.992Z,3.80
2018-09-09T20:27:57.498Z,4.30
2018-09-09T20:30:27.589Z,3.60
2018-09-09T20:32:59.607Z,3.40
2018-09-09T20:35:29.298Z,4.00
2018-09-09T20:37:59.020Z,3.80
2018-09-09T20:40:28.758Z,3.87
2018-09-09T20:42:58.705Z,4.00
2018-09-09T20:45:33.167Z,3.53
2018-09-09T20:48:03.276Z,4.20
2018-09-09T20:50:33.016Z,4.00
2018-09-09T20:53:02.931Z,4.30
2018-09-09T20:55:32.501Z,4.17
2018-09-09T20:58:02.044Z,4.10
2018-09-09T21:00:31.619Z,3.80
2018-09-09T21:03:01.289Z,3.70
2018-09-09T21:05:30.832Z,4.17
2018-09-09T21:08:01.335Z,3.67
2018-09-09T21:10:31.177Z,4.20
2018-09-09T21:13:01.108Z,4.10
2018-09-09T21:15:30.936Z,4.10
2018-09-09T21:18:00.352Z,3.90
2018-09-09T21:20:29.785Z,4.87
2018-09-09T21:22:59.318Z,4.20
2018-09-09T21:25:28.776Z,4.23
2018-09-09T21:27:58.185Z,4.70
2018-09-09T21:30:27.729Z,4.30
2018-09-09T21:32:57.283Z,4.10
2018-09-09T21:35:26.672Z,3.77
2018-09-09T21:37:56.120Z,4.50
2018-09-09T21:40:26.003Z,4.30
2018-09-09T21:42:55.642Z,4.60
2018-09-09T21:45:25.252Z,5.63
2018-09-09T21:47:54.627Z,5.03
2018-09-09T21:50:24.118Z,3.70
2018-09-09T21:52:53.525Z,3.63
2018-09-09T21:55:22.986Z,4.50
2018-09-09T21:57:52.781Z,3.90
2018-09-09T22:00:22.476Z,5.20
2018-09-09T22:02:51.851Z,4.50
2018-09-09T22:05:21.381Z,4.23
2018-09-09T22:07:50.876Z,4.20
2018-09-09T22:10:20.239Z,3.87
2018-09-09T22:12:50.775Z,4.10
2018-09-09T22:15:21.103Z,4.43
2018-09-09T22:17:50.695Z,4.57
2018-09-09T22:20:20.152Z,4.20
2018-09-09T22:22:49.641Z,4.20
2018-09-09T22:25:19.398Z,4.60
2018-09-09T22:27:48.738Z,4.50
2018-09-09T22:30:18.221Z,4.67
2018-09-09T22:32:48.600Z,5.20
2018-09-09T22:35:19.719Z,4.40
2018-09-09T22:37:49.372Z,4.17
2018-09-09T22:40:18.820Z,4.30
2018-09-09T22:42:48.390Z,4.67
2018-09-09T22:45:17.887Z,4.33
2018-09-09T22:47:47.483Z,4.30
2018-09-09T22:50:16.874Z,3.97
2018-09-09T22:52:46.266Z,4.53
2018-09-09T22:55:15.743Z,4.53
2018-09-09T22:57:45.277Z,3.70
2018-09-09T23:00:14.780Z,4.10
2018-09-09T23:02:44.214Z,4.10
2018-09-09T23:05:13.966Z,4.50
2018-09-09T23:07:43.452Z,4.10
2018-09-09T23:10:12.746Z,4.53
2018-09-09T23:12:42.122Z,4.53
2018-09-09T23:15:11.476Z,4.63
2018-09-09T23:17:40.996Z,4.17
2018-09-09T23:20:10.459Z,3.93
2018-09-09T23:22:39.797Z,4.47
2018-09-09T23:25:09.287Z,4.40
2018-09-09T23:27:38.946Z,4.50
2018-09-09T23:30:08.247Z,4.00
2018-09-09T23:32:37.608Z,4.43
2018-09-09T23:35:07.009Z,4.03
2018-09-09T23:37:36.410Z,4.97
2018-09-09T23:40:05.956Z,4.13
2018-09-09T23:42:35.287Z,4.60
2018-09-09T23:45:04.913Z,4.20
2018-09-09T23:47:34.636Z,4.70
2018-09-09T23:50:04.311Z,4.20
2018-09-09T23:52:33.723Z,4.37
2018-09-09T23:55:03.072Z,4.67
2018-09-09T23:57:32.472Z,4.40
